Time;durP1;ratioP1;P1;durP2;ratioP2;P2;SDS_P1;SDS_P2;PMS_P1;PMS_P2;Temp;Humidity;BMP_temperature;BMP_pressure;BME280_temperature;BME280_humidity;BME280_pressure;Samples;Min_cycle;Max_cycle;Signal;HPM_P1;HPM_P2
2021/06/06 00:01:18;;;;;;;0.30;0.20;;;;;;;16.82;63.20;101366.28;5035212;28;20056;-87
2021/06/06 00:03:59;;;;;;;0.20;0.20;;;;;;;16.78;60.29;101371.59;5033811;28;20053;-86
2021/06/06 00:06:32;;;;;;;0.20;0.20;;;;;;;16.77;60.67;101382.91;5040353;28;20508;-86
2021/06/06 00:13:57;;;;;;;0.20;0.20;;;;;;;16.66;61.36;101383.09;5048250;28;20044;-87
2021/06/06 00:25:01;;;;;;;0.20;0.20;;;;;;;16.54;64.76;101370.97;5039360;28;20052;-86
2021/06/06 00:31:05;;;;;;;0.10;0.10;;;;;;;16.53;64.64;101369.31;5040921;28;20049;-88
2021/06/06 00:33:43;;;;;;;0.15;0.15;;;;;;;16.51;65.00;101368.84;5040267;28;20052;-86
2021/06/06 00:36:14;;;;;;;0.20;0.20;;;;;;;16.40;64.53;101355.25;5047283;28;20053;-86
2021/06/06 00:39:11;;;;;;;0.20;0.17;;;;;;;16.50;65.00;101376.25;5042059;28;20045;-86
2021/06/06 00:42:11;;;;;;;0.20;0.20;;;;;;;16.45;63.41;101379.91;5038457;28;20049;-86
2021/06/06 00:44:48;;;;;;;0.20;0.20;;;;;;;16.43;63.31;101373.91;5046303;28;20053;-87
2021/06/06 00:47:28;;;;;;;0.35;0.20;;;;;;;16.36;63.04;101372.66;5039775;28;20064;-86
2021/06/06 00:50:29;;;;;;;0.10;0.10;;;;;;;16.39;65.81;101380.28;5047275;28;20046;-86
2021/06/06 00:53:05;;;;;;;0.10;0.10;;;;;;;16.42;64.56;101379.69;5042750;28;20800;-86
2021/06/06 00:55:44;;;;;;;0.20;0.20;;;;;;;16.28;65.39;101364.00;5063538;28;20052;-87
2021/06/06 00:58:39;;;;;;;0.20;0.20;;;;;;;16.42;65.71;101386.00;5039984;28;20383;-86
2021/06/06 01:01:23;;;;;;;1.95;0.40;;;;;;;16.25;65.22;101364.59;5044449;28;20433;-86
2021/06/06 01:12:15;;;;;;;0.65;0.30;;;;;;;16.03;67.56;101347.97;5040654;28;20060;-86
2021/06/06 01:18:34;;;;;;;0.20;0.20;;;;;;;15.93;69.00;101349.75;5045059;28;20049;-87
2021/06/06 01:21:22;;;;;;;0.13;0.13;;;;;;;16.02;69.60;101390.25;5042667;28;20634;-86
2021/06/06 01:24:15;;;;;;;0.20;0.20;;;;;;;15.73;69.78;101359.13;5047258;28;20045;-86
2021/06/06 01:27:05;;;;;;;0.20;0.20;;;;;;;15.61;71.29;101353.28;5033844;28;20050;-87
2021/06/06 01:30:30;;;;;;;0.20;0.20;;;;;;;15.82;72.66;101389.47;5042356;28;20049;-86
2021/06/06 01:33:50;;;;;;;0.20;0.20;;;;;;;15.76;72.41;101393.38;5045308;28;20559;-86
2021/06/06 01:37:14;;;;;;;0.10;0.10;;;;;;;15.74;72.54;101388.19;5043168;28;20048;-87
2021/06/06 01:40:40;;;;;;;0.22;0.20;;;;;;;15.59;74.04;101391.16;5052797;28;20068;-86
2021/06/06 01:43:43;;;;;;;0.10;0.10;;;;;;;15.48;72.87;101385.81;5043888;28;20059;-86
2021/06/06 01:46:22;;;;;;;0.10;0.10;;;;;;;15.59;71.80;101385.66;5065554;28;20045;-86
2021/06/06 01:48:58;;;;;;;0.45;0.30;;;;;;;15.47;72.85;101375.16;5035899;28;20048;-86
2021/06/06 01:51:32;;;;;;;0.20;0.20;;;;;;;15.30;72.42;101342.72;5048056;28;20075;-87
2021/06/06 01:54:16;;;;;;;0.15;0.15;;;;;;;15.54;72.30;101374.78;5059966;28;20056;-86
2021/06/06 01:56:52;;;;;;;0.20;0.20;;;;;;;15.57;73.17;101380.47;5052559;28;20052;-87
2021/06/06 01:59:35;;;;;;;0.10;0.10;;;;;;;15.57;73.10;101372.25;5051232;28;20132;-87
2021/06/06 02:03:05;;;;;;;0.15;0.13;;;;;;;15.56;72.65;101372.53;5042467;28;20056;-87
2021/06/06 02:06:27;;;;;;;0.20;0.20;;;;;;;15.52;73.44;101379.72;5038649;28;20437;-87
2021/06/06 02:09:25;;;;;;;0.20;0.20;;;;;;;15.50;72.29;101381.97;5041980;28;20054;-86
2021/06/06 02:12:31;;;;;;;0.20;0.20;;;;;;;15.49;73.89;101370.16;5039687;28;20061;-87
2021/06/06 02:19:32;;;;;;;0.20;0.20;;;;;;;15.47;73.40;101370.47;5043699;28;20393;-87
2021/06/06 02:22:20;;;;;;;0.20;0.20;;;;;;;15.42;73.82;101362.28;5058489;28;20065;-87
2021/06/06 02:29:26;;;;;;;0.20;0.20;;;;;;;15.43;74.24;101371.34;5062453;28;20044;-87
2021/06/06 02:32:05;;;;;;;0.22;0.20;;;;;;;15.03;74.57;101335.97;5051900;28;20053;-87
2021/06/06 02:35:03;;;;;;;0.20;0.20;;;;;;;15.10;76.40;101373.97;5046004;28;20057;-86
2021/06/06 02:42:05;;;;;;;0.10;0.10;;;;;;;14.96;74.95;101338.25;5040644;28;20052;-87
2021/06/06 02:44:41;;;;;;;0.10;0.10;;;;;;;14.96;73.24;101349.22;5039664;28;20406;-88
2021/06/06 02:47:43;;;;;;;0.20;0.20;;;;;;;15.16;75.47;101378.28;5047405;28;20516;-87
2021/06/06 02:54:40;;;;;;;0.10;0.10;;;;;;;15.01;75.65;101379.31;5061542;28;20051;-87
2021/06/06 02:57:18;;;;;;;0.20;0.20;;;;;;;15.05;75.51;101382.25;5033052;28;20058;-87
2021/06/06 03:00:07;;;;;;;0.10;0.10;;;;;;;14.72;75.35;101336.34;5039509;28;20049;-88
2021/06/06 03:07:01;;;;;;;0.20;0.20;;;;;;;15.06;75.00;101375.69;5044781;28;20043;-87
2021/06/06 03:09:37;;;;;;;0.10;0.10;;;;;;;14.79;75.76;101336.00;5044313;28;20497;-88
2021/06/06 03:22:52;;;;;;;0.38;0.20;;;;;;;15.03;78.20;101381.75;5034906;28;20058;-89
2021/06/06 03:25:59;;;;;;;0.20;0.20;;;;;;;15.10;77.70;101380.28;5048668;28;20057;-87
2021/06/06 03:32:58;;;;;;;0.20;0.20;;;;;;;15.11;77.21;101365.47;5044145;28;20040;-87
2021/06/06 03:39:54;;;;;;;0.17;0.15;;;;;;;15.05;76.21;101352.94;5046327;28;20036;-87
2021/06/06 03:43:16;;;;;;;0.20;0.20;;;;;;;15.30;76.35;101381.94;5052207;28;20051;-87
2021/06/06 03:45:46;;;;;;;0.30;0.20;;;;;;;15.05;76.57;101346.63;5037361;28;20045;-87
2021/06/06 03:52:44;;;;;;;0.10;0.10;;;;;;;15.13;77.63;101359.69;5036575;28;20103;-87
2021/06/06 03:55:18;;;;;;;0.25;0.25;;;;;;;15.22;76.42;101374.38;5054904;28;20053;-87
2021/06/06 03:58:03;;;;;;;0.20;0.20;;;;;;;15.34;76.93;101395.06;5047472;28;20076;-87
2021/06/06 04:04:59;;;;;;;0.20;0.20;;;;;;;15.15;75.97;101373.94;5049999;28;20044;-86
2021/06/06 04:11:57;;;;;;;0.43;0.30;;;;;;;15.32;76.37;101400.03;5040649;28;20056;-87
2021/06/06 04:14:29;;;;;;;0.28;0.28;;;;;;;15.27;76.01;101387.19;5047569;28;20405;-86
2021/06/06 04:17:24;;;;;;;0.20;0.20;;;;;;;15.35;76.57;101400.25;5038839;28;20049;-86
2021/06/06 04:24:25;;;;;;;0.47;0.20;;;;;;;15.33;76.89;101396.16;5046149;28;20048;-86
2021/06/06 04:27:25;;;;;;;0.20;0.20;;;;;;;15.41;76.84;101410.06;5051270;28;20045;-86
2021/06/06 04:29:59;;;;;;;0.20;0.20;;;;;;;15.19;77.97;101369.50;5034016;28;20050;-86
2021/06/06 04:36:54;;;;;;;0.45;0.20;;;;;;;15.36;77.36;101384.63;5051229;28;20044;-87
2021/06/06 04:44:44;;;;;;;0.20;0.20;;;;;;;15.42;76.39;101389.72;5042227;28;20043;-86
2021/06/06 04:47:15;;;;;;;0.20;0.20;;;;;;;15.44;77.05;101393.00;5041824;28;20056;-86
2021/06/06 04:49:50;;;;;;;;;;;;;;;15.46;76.43;101398.19;5043328;28;20053;-86
2021/06/06 04:52:18;;;;;;;0.47;0.20;;;;;;;15.41;76.95;101388.13;5035465;28;19925;-85
2021/06/06 04:54:49;;;;;;;0.20;0.20;;;;;;;15.14;76.72;101347.63;5060277;28;20055;-87
2021/06/06 04:57:18;;;;;;;0.13;0.13;;;;;;;15.13;76.36;101360.50;5045972;28;20060;-86
2021/06/06 04:59:51;;;;;;;0.10;0.10;;;;;;;15.44;76.52;101398.50;5041905;28;20042;-86
2021/06/06 05:02:30;;;;;;;0.22;0.22;;;;;;;15.41;77.02;101385.38;5042109;28;20525;-87
2021/06/06 05:05:25;;;;;;;0.20;0.20;;;;;;;15.55;77.21;101398.34;5049408;28;20050;-86
2021/06/06 05:15:58;;;;;;;0.30;0.20;;;;;;;15.53;76.68;101406.06;5057916;28;20045;-86
2021/06/06 05:26:43;;;;;;;0.20;0.20;;;;;;;15.44;77.50;101408.66;5051237;28;20048;-86
2021/06/06 05:29:40;;;;;;;0.20;0.20;;;;;;;15.47;77.53;101405.31;5040488;28;20045;-87
2021/06/06 05:41:04;;;;;;;0.13;0.13;;;;;;;15.52;73.03;101407.16;5052485;28;20040;-86
2021/06/06 05:48:00;;;;;;;0.20;0.20;;;;;;;15.51;74.16;101414.59;5056198;28;20044;-85
2021/06/06 05:50:32;;;;;;;0.20;0.20;;;;;;;15.45;77.00;101419.31;5051101;28;20053;-86
2021/06/06 05:53:30;;;;;;;0.28;0.20;;;;;;;15.45;75.18;101413.84;5052868;28;20052;-85
2021/06/06 05:56:01;;;;;;;0.35;0.20;;;;;;;15.35;75.40;101424.94;5065805;28;20052;-86
2021/06/06 05:58:28;;;;;;;0.20;0.20;;;;;;;15.30;76.93;101412.13;5038224;28;20045;-86
2021/06/06 06:00:56;;;;;;;0.30;0.30;;;;;;;15.35;77.42;101413.16;5046911;28;20045;-86
2021/06/06 06:03:50;;;;;;;0.20;0.20;;;;;;;15.41;77.76;101429.25;5042617;28;20050;-86
2021/06/06 06:06:38;;;;;;;0.38;0.20;;;;;;;15.54;76.19;101422.22;5050594;28;20152;-86
2021/06/06 06:09:07;;;;;;;0.38;0.20;;;;;;;15.75;77.06;101438.41;5034083;28;20049;-86
2021/06/06 06:11:41;;;;;;;0.15;0.15;;;;;;;15.62;75.82;101431.72;5033959;28;20060;-86
2021/06/06 06:18:40;;;;;;;0.32;0.15;;;;;;;15.77;76.71;101434.25;5069545;28;20043;-86
2021/06/06 06:25:32;;;;;;;0.20;0.20;;;;;;;15.61;75.75;101408.13;5073206;28;20393;-87
2021/06/06 06:28:33;;;;;;;0.20;0.20;;;;;;;15.81;74.07;101439.97;5064044;28;20048;-86
2021/06/06 06:31:21;;;;;;;0.17;0.17;;;;;;;15.69;75.08;101432.16;5050277;28;20509;-86
2021/06/06 06:33:59;;;;;;;0.20;0.20;;;;;;;15.64;75.76;101408.34;5058680;28;20044;-86
2021/06/06 06:36:35;;;;;;;0.30;0.22;;;;;;;15.94;74.76;101441.97;5066569;28;20040;-87
2021/06/06 06:39:05;;;;;;;0.20;0.20;;;;;;;15.58;76.05;101401.31;5062297;28;20060;-86
2021/06/06 06:42:12;;;;;;;0.20;0.20;;;;;;;15.91;74.18;101448.06;5033554;28;20053;-85
2021/06/06 06:45:44;;;;;;;0.20;0.20;;;;;;;15.95;74.58;101446.38;5050754;28;20060;-86
2021/06/06 06:48:15;;;;;;;0.20;0.20;;;;;;;15.88;76.45;101429.47;5033441;28;20049;-86
2021/06/06 06:50:49;;;;;;;0.22;0.20;;;;;;;15.64;75.05;101408.34;5034567;28;20057;-87
2021/06/06 07:02:16;;;;;;;0.30;0.30;;;;;;;15.87;77.16;101457.19;5040163;28;20516;-86
2021/06/06 07:05:14;;;;;;;0.20;0.20;;;;;;;15.83;77.54;101465.22;5036277;28;20045;-86
2021/06/06 07:07:49;;;;;;;0.30;0.30;;;;;;;15.83;79.05;101465.22;5052359;28;20061;-86
2021/06/06 07:10:24;;;;;;;0.40;0.40;;;;;;;16.18;78.23;101468.53;5040962;28;20056;-87
2021/06/06 07:13:03;;;;;;;0.52;0.52;;;;;;;15.84;80.06;101424.84;5046504;28;20512;-88
2021/06/06 07:20:52;;;;;;;0.70;0.70;;;;;;;16.23;79.39;101471.19;5054935;28;20043;-87
2021/06/06 07:23:49;;;;;;;0.70;0.70;;;;;;;16.38;79.29;101467.41;5043712;28;20053;-86
2021/06/06 07:29:41;;;;;;;0.60;0.60;;;;;;;16.31;78.85;101472.47;5046655;28;20270;-86
2021/06/06 07:32:41;;;;;;;0.70;0.70;;;;;;;16.27;79.13;101474.19;5043655;28;20236;-87
2021/06/06 07:35:17;;;;;;;0.57;0.57;;;;;;;16.25;79.98;101476.38;5051365;28;20059;-86
2021/06/06 07:37:47;;;;;;;0.60;0.60;;;;;;;16.36;79.69;101466.88;5039783;28;20414;-86
2021/06/06 07:41:20;;;;;;;0.50;0.50;;;;;;;16.38;79.94;101472.06;5041778;28;20048;-86
2021/06/06 07:48:22;;;;;;;0.60;0.60;;;;;;;16.16;79.48;101479.00;5043521;28;20049;-88
2021/06/06 07:51:16;;;;;;;0.50;0.50;;;;;;;16.14;80.24;101479.31;5039725;28;20048;-87
2021/06/06 07:53:48;;;;;;;0.40;0.40;;;;;;;16.27;80.42;101477.72;5044560;28;20834;-87
2021/06/06 07:57:07;;;;;;;0.60;0.50;;;;;;;16.43;79.64;101477.47;5033969;28;20064;-88
2021/06/06 08:00:08;;;;;;;0.30;0.30;;;;;;;16.52;78.91;101472.09;5051101;28;20414;-87
2021/06/06 08:02:41;;;;;;;0.35;0.35;;;;;;;16.54;78.43;101469.88;5045966;28;20053;-87
2021/06/06 08:05:14;;;;;;;0.95;0.40;;;;;;;16.46;78.27;101474.94;5034280;28;20053;-88
2021/06/06 08:07:48;;;;;;;0.40;0.40;;;;;;;16.04;79.29;101430.03;5046644;28;20056;-88
2021/06/06 08:14:22;;;;;;;0.30;0.30;;;;;;;16.42;78.77;101481.31;5037798;28;20052;-89
2021/06/06 08:16:51;;;;;;;0.30;0.30;;;;;;;16.27;79.77;101471.44;5048429;28;20057;-88
2021/06/06 08:19:29;;;;;;;0.20;0.20;;;;;;;16.36;79.36;101471.56;5051680;28;20049;-88
2021/06/06 08:22:07;;;;;;;0.20;0.20;;;;;;;16.46;79.21;101487.84;5047645;28;20048;-87
2021/06/06 08:25:08;;;;;;;0.20;0.20;;;;;;;16.47;80.38;101492.25;5049831;28;20600;-88
2021/06/06 08:27:44;;;;;;;0.38;0.30;;;;;;;16.45;80.34;101489.00;5050479;28;20040;-87
2021/06/06 08:30:44;;;;;;;0.20;0.20;;;;;;;16.49;77.10;101490.84;5050894;28;20060;-89
2021/06/06 08:33:21;;;;;;;0.35;0.30;;;;;;;16.38;77.22;101485.78;5046142;28;20060;-86
2021/06/06 08:35:53;;;;;;;0.30;0.30;;;;;;;16.49;76.08;101490.84;5042614;28;20057;-87
2021/06/06 08:38:52;;;;;;;0.30;0.30;;;;;;;16.46;75.73;101491.44;5051156;28;20631;-87
2021/06/06 08:41:32;;;;;;;0.20;0.20;;;;;;;16.55;75.45;101496.25;5050322;28;20053;-87
2021/06/06 08:44:09;;;;;;;0.52;0.30;;;;;;;16.27;77.93;101496.16;5048707;28;20052;-88
2021/06/06 08:47:10;;;;;;;0.30;0.30;;;;;;;16.31;78.39;101495.25;5049729;28;20063;-89
2021/06/06 08:50:05;;;;;;;0.30;0.30;;;;;;;16.43;77.08;101492.03;5053311;28;21918;-88
2021/06/06 08:52:49;;;;;;;0.20;0.20;;;;;;;16.39;75.92;101498.41;5052929;28;20053;-88
2021/06/06 08:55:35;;;;;;;0.30;0.30;;;;;;;16.60;75.46;101491.47;5053371;28;20064;-88
2021/06/06 08:58:23;;;;;;;0.30;0.30;;;;;;;16.31;77.04;101476.00;5049152;28;20056;-89
2021/06/06 09:01:02;;;;;;;0.28;0.22;;;;;;;16.00;76.40;101467.44;5049997;28;20048;-91
2021/06/06 09:03:36;;;;;;;0.30;0.30;;;;;;;16.28;76.31;101495.00;5049450;28;21109;-88
2021/06/06 09:06:13;;;;;;;0.80;0.25;;;;;;;16.45;76.78;101489.00;5050825;28;20052;-88
2021/06/06 09:08:41;;;;;;;0.22;0.22;;;;;;;16.40;76.02;101506.34;5047952;28;20060;-88
2021/06/06 09:11:42;;;;;;;0.30;0.30;;;;;;;16.80;74.26;101505.97;5049053;28;20064;-87
2021/06/06 09:14:19;;;;;;;0.25;0.25;;;;;;;16.51;76.26;101507.00;5049611;28;20061;-87
2021/06/06 09:17:13;;;;;;;0.35;0.30;;;;;;;16.66;76.52;101509.50;5045200;28;20520;-88
2021/06/06 09:19:48;;;;;;;0.40;0.30;;;;;;;16.71;76.81;101510.53;5047815;28;20498;-89
2021/06/06 09:22:47;;;;;;;0.40;0.40;;;;;;;16.77;77.31;101507.41;5049648;28;20410;-88
2021/06/06 09:25:27;;;;;;;0.30;0.30;;;;;;;16.79;76.48;101510.69;5049723;28;20495;-90
2021/06/06 09:28:09;;;;;;;0.30;0.30;;;;;;;16.81;75.89;101505.69;5046918;28;20068;-91
2021/06/06 09:30:44;;;;;;;0.35;0.35;;;;;;;16.71;76.52;101503.13;5047940;28;20056;-88
2021/06/06 09:33:23;;;;;;;0.30;0.30;;;;;;;16.74;76.11;101512.69;5048669;28;20056;-89
2021/06/06 09:36:02;;;;;;;0.80;0.40;;;;;;;16.82;79.73;101509.22;5048912;28;20147;-88
2021/06/06 09:38:42;;;;;;;0.75;0.50;;;;;;;17.04;77.88;101516.03;5046832;28;20512;-88
2021/06/06 09:41:32;;;;;;;0.40;0.40;;;;;;;17.33;75.29;101505.56;5050723;28;20051;-89
2021/06/06 09:44:06;;;;;;;0.45;0.40;;;;;;;16.92;78.18;101472.53;5049141;28;20055;-88
2021/06/06 09:46:43;;;;;;;0.40;0.40;;;;;;;17.16;77.23;101508.09;5048531;28;20508;-89
2021/06/06 09:49:33;;;;;;;0.40;0.40;;;;;;;17.50;74.95;101509.66;5052107;28;20059;-89
2021/06/06 09:52:22;;;;;;;0.40;0.40;;;;;;;17.43;74.49;101503.75;5045538;28;20063;-88
2021/06/06 09:54:51;;;;;;;0.50;0.40;;;;;;;17.30;75.92;101486.09;5050361;28;20049;-89
2021/06/06 09:57:48;;;;;;;0.50;0.50;;;;;;;17.40;75.55;101488.66;5055612;28;20060;-89
2021/06/06 10:00:36;;;;;;;0.63;0.50;;;;;;;17.82;74.83;101503.16;5051913;28;20057;-90
2021/06/06 10:03:31;;;;;;;0.50;0.50;;;;;;;17.98;75.62;101502.84;5050064;28;20057;-88
2021/06/06 10:06:18;;;;;;;0.93;0.60;;;;;;;18.29;74.37;101511.22;5052489;28;20051;-89
2021/06/06 10:09:11;;;;;;;0.60;0.60;;;;;;;18.28;76.26;101509.59;5051862;28;20053;-88
2021/06/06 10:11:53;;;;;;;0.50;0.50;;;;;;;18.62;75.84;101513.75;5044276;28;20056;-88
2021/06/06 10:14:30;;;;;;;0.60;0.60;;;;;;;18.24;75.22;101491.25;5052845;28;20398;-89
2021/06/06 10:17:06;;;;;;;;;;;;;;;18.61;76.70;101517.63;5054066;28;20059;-90
2021/06/06 10:19:55;;;;;;;0.65;0.65;;;;;;;18.30;75.15;101510.09;5052193;28;19928;-90
2021/06/06 10:22:54;;;;;;;0.80;0.80;;;;;;;18.67;77.00;101524.66;5053016;28;20064;-91
2021/06/06 10:25:41;;;;;;;0.70;0.70;;;;;;;18.50;77.25;101525.31;5056671;28;20061;-88
2021/06/06 10:28:20;;;;;;;1.40;0.80;;;;;;;18.62;74.76;101515.69;5060044;28;20055;-89
2021/06/06 10:31:15;;;;;;;0.70;0.70;;;;;;;18.38;76.08;101527.00;5049202;28;20058;-91
2021/06/06 10:33:49;;;;;;;0.80;0.80;;;;;;;18.30;76.63;101528.59;5050657;28;20512;-90
2021/06/06 10:36:38;;;;;;;0.77;0.77;;;;;;;18.13;76.13;101530.06;5048386;28;20717;-90
2021/06/06 10:39:37;;;;;;;0.70;0.70;;;;;;;18.08;77.22;101535.69;5052507;28;20040;-88
2021/06/06 10:42:10;;;;;;;1.02;0.70;;;;;;;18.33;77.58;101527.97;5035969;28;20059;-89
2021/06/06 10:45:15;;;;;;;0.70;0.70;;;;;;;17.96;78.08;101538.16;5049334;28;20052;-89
2021/06/06 10:48:00;;;;;;;0.70;0.70;;;;;;;17.84;77.63;101528.47;5046911;28;20056;-89
2021/06/06 10:51:08;;;;;;;0.70;0.70;;;;;;;17.89;78.52;101544.06;5052396;28;20056;-89
2021/06/06 10:54:06;;;;;;;0.70;0.70;;;;;;;17.92;78.35;101542.66;5055218;28;20076;-89
2021/06/06 10:57:34;;;;;;;0.60;0.60;;;;;;;18.04;77.19;101539.38;5050606;28;20061;-90
2021/06/06 11:00:31;;;;;;;0.70;0.70;;;;;;;17.93;78.50;101531.34;5052526;28;20057;-89
2021/06/06 11:03:24;;;;;;;0.77;0.60;;;;;;;18.00;78.42;101520.69;5050016;28;20519;-89
2021/06/06 11:05:59;;;;;;;0.60;0.60;;;;;;;17.90;77.73;101507.13;5051726;28;20129;-88
2021/06/06 11:08:50;;;;;;;0.70;0.70;;;;;;;18.04;77.79;101531.94;5048610;28;20052;-90
2021/06/06 11:11:30;;;;;;;0.60;0.60;;;;;;;17.95;79.46;101520.00;5047574;28;20052;-89
2021/06/06 11:14:14;;;;;;;0.55;0.55;;;;;;;17.84;78.00;101528.47;5052618;28;20512;-90
2021/06/06 11:16:44;;;;;;;0.60;0.60;;;;;;;18.16;78.56;101531.38;5049079;28;20425;-89
2021/06/06 11:19:26;;;;;;;0.60;0.60;;;;;;;17.99;76.68;101515.50;5046884;28;20067;-89
2021/06/06 11:22:30;;;;;;;0.70;0.60;;;;;;;18.32;78.02;101529.09;5047618;28;20053;-90
2021/06/06 11:25:06;;;;;;;0.60;0.60;;;;;;;18.28;78.14;101526.13;5050147;28;20415;-90
2021/06/06 11:27:53;;;;;;;0.60;0.60;;;;;;;18.53;76.40;101532.16;5050183;28;20060;-89
2021/06/06 11:30:49;;;;;;;;;;;;;;;18.46;76.72;101532.63;5049666;28;20072;-89
2021/06/06 11:33:35;;;;;;;0.70;0.70;;;;;;;18.48;76.42;101491.75;4935738;28;20323;-89
2021/06/06 11:36:05;;;;;;;0.60;0.60;;;;;;;18.50;75.89;101524.50;4953125;28;20065;-90
2021/06/06 11:38:42;;;;;;;0.57;0.57;;;;;;;18.65;76.08;101526.88;4939356;28;20048;-90
2021/06/06 11:41:29;;;;;;;;;;;;;;;18.61;76.77;101531.41;4937568;28;20047;-89
2021/06/06 11:44:28;;;;;;;0.50;0.50;;;;;;;18.67;76.46;101535.66;5042688;28;19924;-88
2021/06/06 11:47:06;;;;;;;0.60;0.60;;;;;;;18.56;76.23;101514.19;5049141;28;20056;-89
2021/06/06 11:49:49;;;;;;;0.50;0.50;;;;;;;18.31;75.10;101484.19;5053421;28;20049;-89
2021/06/06 11:52:55;;;;;;;0.43;0.43;;;;;;;18.57;77.08;101519.38;5048559;28;20081;-88
2021/06/06 11:55:29;;;;;;;0.50;0.50;;;;;;;18.61;76.00;101516.81;5050729;28;20056;-88
2021/06/06 11:58:18;;;;;;;0.55;0.55;;;;;;;18.63;76.49;101503.50;5047779;28;20059;-88
2021/06/06 12:00:56;;;;;;;0.50;0.50;;;;;;;18.62;74.61;101518.44;5049836;28;20040;-89
2021/06/06 12:03:28;;;;;;;0.55;0.55;;;;;;;18.65;76.13;101515.06;5048317;28;20890;-89
2021/06/06 12:06:26;;;;;;;0.60;0.52;;;;;;;18.69;75.26;101529.84;5050980;28;20052;-88
2021/06/06 12:09:12;;;;;;;0.50;0.50;;;;;;;18.64;75.14;101518.94;5050521;28;20493;-90
2021/06/06 12:11:47;;;;;;;0.40;0.40;;;;;;;18.63;75.02;101487.81;5050594;28;20041;-90
2021/06/06 12:14:19;;;;;;;0.50;0.50;;;;;;;18.57;75.66;101522.13;5050946;28;20044;-90
2021/06/06 12:16:54;;;;;;;0.40;0.40;;;;;;;18.65;76.36;101526.09;5052941;28;20052;-89
2021/06/06 12:20:13;;;;;;;0.50;0.50;;;;;;;18.51;76.20;101532.47;5046548;28;20320;-89
2021/06/06 12:22:42;;;;;;;0.47;0.47;;;;;;;18.31;76.09;101527.44;5048039;28;20572;-91
2021/06/06 12:25:28;;;;;;;0.50;0.50;;;;;;;18.32;75.32;101490.50;5050438;28;20064;-88
2021/06/06 12:28:08;;;;;;;0.50;0.50;;;;;;;18.31;76.46;101492.47;5055719;28;20542;-90
2021/06/06 12:30:51;;;;;;;0.50;0.50;;;;;;;18.64;75.00;101524.44;5053311;28;20061;-91
2021/06/06 12:34:16;;;;;;;0.57;0.57;;;;;;;18.60;74.47;101527.03;5053521;28;20049;-90
2021/06/06 12:37:39;;;;;;;0.60;0.60;;;;;;;19.02;78.38;101527.63;5049726;28;20087;-88
2021/06/06 12:40:11;;;;;;;0.50;0.50;;;;;;;19.24;74.58;101525.13;5049826;28;20060;-90
2021/06/06 12:42:49;;;;;;;0.40;0.40;;;;;;;18.69;73.95;101455.41;5049078;28;20085;-90
2021/06/06 12:45:28;;;;;;;0.40;0.40;;;;;;;19.52;73.00;101522.97;5044621;28;20056;-88
2021/06/06 12:48:32;;;;;;;0.40;0.40;;;;;;;19.66;73.00;101520.06;5048347;28;20052;-90
2021/06/06 12:51:15;;;;;;;0.40;0.40;;;;;;;19.81;73.46;101505.03;5046532;28;20056;-89
2021/06/06 12:53:44;;;;;;;0.55;0.40;;;;;;;19.45;72.31;101470.97;5044820;28;20321;-89
2021/06/06 12:56:24;;;;;;;0.40;0.40;;;;;;;19.91;72.97;101468.00;5050987;28;20052;-90
2021/06/06 12:59:04;;;;;;;0.40;0.40;;;;;;;20.17;70.28;101499.19;5049204;28;20060;-90
2021/06/06 13:01:33;;;;;;;0.43;0.40;;;;;;;20.42;71.34;101502.25;5048871;28;20068;-89
2021/06/06 13:04:18;;;;;;;0.50;0.50;;;;;;;20.14;69.43;101477.75;5054980;28;20057;-90
2021/06/06 13:06:49;;;;;;;0.45;0.45;;;;;;;20.58;71.08;101496.22;5050434;28;20037;-89
2021/06/06 13:09:25;;;;;;;0.30;0.30;;;;;;;20.58;69.48;101487.91;5050163;28;20053;-91
2021/06/06 13:12:26;;;;;;;0.40;0.40;;;;;;;20.86;67.96;101503.00;5050677;28;20060;-90
2021/06/06 13:14:59;;;;;;;0.30;0.30;;;;;;;20.37;69.03;101508.78;5047293;28;20068;-88
2021/06/06 13:17:34;;;;;;;0.40;0.40;;;;;;;20.82;69.71;101474.38;5043121;28;20536;-88
2021/06/06 13:20:26;;;;;;;0.40;0.40;;;;;;;21.29;68.33;101492.13;5050788;28;20045;-89
2021/06/06 13:23:07;;;;;;;0.45;0.40;;;;;;;21.04;68.54;101502.97;5044507;28;20041;-89
2021/06/06 13:25:55;;;;;;;0.40;0.40;;;;;;;20.53;67.75;101497.22;5047881;28;20066;-88
2021/06/06 13:28:31;;;;;;;0.40;0.40;;;;;;;20.82;69.01;101479.13;5051334;28;20048;-91
2021/06/06 13:31:07;;;;;;;0.40;0.40;;;;;;;20.87;66.63;101492.78;5051239;28;20053;-91
2021/06/06 13:33:47;;;;;;;0.40;0.40;;;;;;;21.57;66.46;101492.47;5052234;28;20053;-92
2021/06/06 13:36:23;;;;;;;0.32;0.32;;;;;;;21.80;65.05;101497.72;5051807;28;20064;-89
2021/06/06 13:38:52;;;;;;;0.40;0.40;;;;;;;21.80;65.48;101504.06;5052091;28;20045;-87
2021/06/06 13:41:26;;;;;;;0.40;0.40;;;;;;;21.52;63.93;101484.34;5051878;28;20512;-91
2021/06/06 13:44:10;;;;;;;0.47;0.40;;;;;;;21.26;64.46;101467.88;5053620;28;20061;-92
2021/06/06 13:47:04;;;;;;;0.30;0.30;;;;;;;21.49;64.94;101507.13;5051412;28;20045;-90
2021/06/06 13:49:40;;;;;;;0.30;0.30;;;;;;;20.86;65.17;101493.91;5051536;28;20109;-89
2021/06/06 13:52:36;;;;;;;0.30;0.30;;;;;;;21.00;68.08;101504.78;5050334;28;20067;-91
2021/06/06 13:55:07;;;;;;;0.30;0.30;;;;;;;20.78;68.32;101481.72;5050065;28;20144;-90
2021/06/06 13:58:09;;;;;;;0.30;0.30;;;;;;;20.83;68.98;101505.66;5050588;28;20060;-90
2021/06/06 14:00:39;;;;;;;0.30;0.30;;;;;;;20.92;70.35;101475.97;5054589;28;20063;-90
2021/06/06 14:03:34;;;;;;;0.30;0.30;;;;;;;20.97;68.70;101510.97;5057064;28;20068;-91
2021/06/06 14:06:23;;;;;;;0.25;0.25;;;;;;;20.67;68.90;101508.09;5056058;28;20053;-89
2021/06/06 14:08:56;;;;;;;0.30;0.30;;;;;;;20.28;69.73;101507.16;5058151;28;20053;-88
2021/06/06 14:11:31;;;;;;;0.30;0.30;;;;;;;20.26;70.01;101490.91;5053741;28;21637;-90
2021/06/06 14:14:24;;;;;;;0.25;0.25;;;;;;;20.27;69.52;101511.06;5053252;28;20053;-88
2021/06/06 14:16:57;;;;;;;0.28;0.28;;;;;;;20.00;70.39;101466.84;5055218;28;20049;-89
2021/06/06 14:19:25;;;;;;;0.30;0.30;;;;;;;20.07;69.30;101487.69;5053038;28;21168;-89
2021/06/06 14:21:54;;;;;;;0.40;0.40;;;;;;;19.87;71.15;101493.50;5053067;28;20056;-88
2021/06/06 14:24:24;;;;;;;0.38;0.38;;;;;;;19.67;71.62;101494.91;5053399;28;20048;-88
2021/06/06 14:27:06;;;;;;;0.40;0.40;;;;;;;20.03;71.31;101506.84;5054134;28;20515;-88
2021/06/06 14:30:24;;;;;;;0.40;0.40;;;;;;;19.57;72.21;101509.00;5051765;28;20056;-87
2021/06/06 14:33:02;;;;;;;0.30;0.30;;;;;;;19.49;72.01;101509.81;5048531;28;20048;-88
2021/06/06 14:35:45;;;;;;;0.40;0.40;;;;;;;19.64;72.50;101516.84;5052884;28;20052;-88
2021/06/06 14:38:15;;;;;;;0.30;0.30;;;;;;;19.43;72.53;101506.38;5055088;28;20079;-88
2021/06/06 14:40:54;;;;;;;0.30;0.30;;;;;;;19.44;72.60;101510.75;5049269;28;20053;-87
2021/06/06 14:43:46;;;;;;;0.40;0.40;;;;;;;19.27;72.76;101499.66;5051077;28;20473;-87
2021/06/06 14:46:39;;;;;;;0.40;0.40;;;;;;;19.48;72.21;101506.22;5054078;28;20044;-89
2021/06/06 14:49:17;;;;;;;0.30;0.30;;;;;;;19.57;72.43;101503.50;5055705;28;20061;-88
2021/06/06 14:51:49;;;;;;;0.30;0.30;;;;;;;19.57;73.59;101505.44;5055186;28;21289;-88
2021/06/06 14:54:20;;;;;;;0.43;0.30;;;;;;;19.33;73.51;101495.63;5053202;28;20067;-87
2021/06/06 14:56:56;;;;;;;0.30;0.30;;;;;;;19.42;72.99;101495.66;5053346;28;20071;-88
2021/06/06 14:59:29;;;;;;;0.40;0.40;;;;;;;19.43;74.09;101508.31;5052278;28;20056;-89
2021/06/06 15:02:03;;;;;;;0.30;0.30;;;;;;;19.34;73.10;101489.78;5053706;28;20057;-89
2021/06/06 15:04:48;;;;;;;0.30;0.30;;;;;;;19.46;72.73;101510.44;5052407;28;20048;-90
2021/06/06 15:07:49;;;;;;;0.30;0.30;;;;;;;19.34;73.56;101505.53;5054614;28;20044;-89
2021/06/06 15:10:24;;;;;;;0.43;0.30;;;;;;;19.28;74.25;101504.03;5050169;28;20057;-89
2021/06/06 15:12:53;;;;;;;0.30;0.30;;;;;;;19.34;73.16;101494.50;5049211;28;20053;-89
2021/06/06 15:15:31;;;;;;;0.30;0.30;;;;;;;19.08;72.03;101486.13;5049528;28;20056;-89
2021/06/06 15:18:32;;;;;;;0.30;0.30;;;;;;;18.98;74.13;101501.81;5045843;28;20504;-90
2021/06/06 15:21:08;;;;;;;0.30;0.30;;;;;;;18.86;74.09;101487.75;5052024;28;20059;-90
2021/06/06 15:23:36;;;;;;;0.30;0.30;;;;;;;18.79;74.41;101492.91;5053549;28;20038;-90
2021/06/06 15:26:08;;;;;;;0.32;0.32;;;;;;;18.98;74.03;101496.28;5049438;28;20057;-88